Etusivu
METAR-TAF:

METAR-TAF

Lentoasemat :

Kristiansandin lentoasema

Kristiansand, Norja

Leveyspiiri: 58-12N, Pituuspiiri: 008-05E, korkeus merenpinnasta: 1 m

Tämänhetkinen sää

Tämä raportti tehtiin 25 minuuttia sitten, kello 04.20 UTC
Tuuli 6 kn lännestä, vaihdellen etelän/lounaan ja pohjoisen/luoteen välillä
Lämpötila 16°C
Kosteus 68%
Ilmanpaine 1007 hPa
Näkyvyys 10 km tai enemmän
ei pilviä alle 1500 m:ssä eikä cumulonimbus-pilviä

METAR: ENCN 220420Z 28006KT 210V330 CAVOK 16/10 Q1007

Aika: 06:45 (04:45 UTC)

Sääennuste

Tämä raportti tehtiin 2 tuntia ja 45 minuuttia sitten, kello 02.00 UTC
Ennuste voimassa 22. päivästä klo 03 UTC - 22. päivään klo 12 UTC
Tuuli 10 kn lännestä
Näkyvyys 10 km tai enemmän
ei pilviä alle 1500 m:ssä eikä cumulonimbus-pilviä

TAF: ENCN 220200Z 2203/2212 26010KT CAVOK

Säähavainnot ja -ennusteet yli 4000 lentoasemalta (METAR- ja TAF-raportit).

Käytössä olevat sääasemat on merkitty karttaan keltaisilla ja punaisilla pisteillä.

Aseta hiiri pisteen päälle nähdäksesi sääaseman nimen.

Klikkaa sitten nähdäksesi säähavainnot ja -ennusteet.

Kartan vaihtaminen: klikkaa mustalla rastilla varustettuja vihreitä pisteitä, niin voit zoomata sisään; viivalla varustettua vihreää pistettä, niin voit zoomata ulos tai vihreitä nuolia, niin pääset viereisille kartoille.


METAR-TAF: